This is the latest recevied weather packets stored in our database for station/object W0DXV. If no packets are shown the sender has not sent any weather packets the latest 1 day(s).
| Time | Temp. | Humidity | Pressure | Rain* | Wind** | Luminosity | Snow |
|---|---|---|---|---|---|---|---|
| 1778093603 | 19.44° C | 91% | 1008.6 hPa | 0 mm | - | 503 W/m² | - |
| 1778093300 | 19.44° C | 90% | 1008.8 hPa | 0 mm | - | 324 W/m² | - |
| 1778092087 | 18.89° C | 92% | 1009.3 hPa | 0 mm | - | 263 W/m² | - |
| 1778091482 | 18.89° C | 94% | 1008.9 hPa | 0 mm | - | 324 W/m² | - |
| 1778090572 | 18.89° C | 94% | 1008.8 hPa | 0 mm | - | 273 W/m² | - |
| 1778089663 | 17.78° C | 95% | 1010.2 hPa | 0 mm | - | 234 W/m² | - |
| 1778088451 | 17.78° C | 94% | 1010.4 hPa | 1.78 mm | - | 133 W/m² | - |
| 1778086635 | 20.56° C | 77% | 1010.6 hPa | 0 mm | - | 45 W/m² | - |
| 1778085422 | 21.11° C | 71% | 1010.4 hPa | 0 mm | - | 145 W/m² | - |
| 1778085117 | 21.11° C | 73% | 1010.6 hPa | 0 mm | - | 162 W/m² | - |
| 1778082998 | 20.56° C | 73% | 1010.3 hPa | 0 mm | - | 251 W/m² | - |
| 1778080650 | 19.44° C | 78% | 1009.3 hPa | 0 mm | - | 135 W/m² | - |
| 1778080346 | 19.44° C | 78% | 1009.6 hPa | 0 mm | - | 137 W/m² | - |
| 1778080042 | 19.44° C | 77% | 1009.4 hPa | 0 mm | - | 77 W/m² | - |
| 1778079437 | 18.89° C | 77% | 1009.7 hPa | 0 mm | - | 101 W/m² | - |
| 1778079133 | 18.89° C | 78% | 1009.8 hPa | 0 mm | - | 125 W/m² | - |
| 1778078225 | 18.33° C | 79% | 1010 hPa | 0 mm | - | 78 W/m² | - |
| 1778077621 | 18.33° C | 79% | 1010.2 hPa | 0 mm | - | 58 W/m² | - |
| 1778077016 | 18.33° C | 78% | 1010 hPa | 0 mm | - | 71 W/m² | - |
| 1778076714 | 18.33° C | 77% | 1009.9 hPa | 0 mm | - | 73 W/m² | - |
| 1778075198 | 18.33° C | 76% | 1009.7 hPa | 0 mm | - | 108 W/m² | - |
| 1778074894 | 18.33° C | 76% | 1009.7 hPa | 0 mm | - | 83 W/m² | - |
| 1778073076 | 17.78° C | 77% | 1009.5 hPa | 0 mm | - | 84 W/m² | - |
| 1778072773 | 17.78° C | 76% | 1009.6 hPa | 0 mm | - | 83 W/m² | - |
| 1778072169 | 17.78° C | 77% | 1009.2 hPa | 0 mm | - | 109 W/m² | - |
* Rain latest hour (hover to see other rain measurements)
** Current wind speed in m/s (hover to see current wind gust speed)